sensor_id;sensor_type;location;lat;lon;timestamp;temperature;humidity
20803;DHT22;10562;-33.856;151.182;2023-01-10T00:00:17;27.40;99.90
20803;DHT22;10562;-33.856;151.182;2023-01-10T00:02:48;27.60;99.90
20803;DHT22;10562;-33.856;151.182;2023-01-10T00:05:19;27.80;99.90
20803;DHT22;10562;-33.856;151.182;2023-01-10T00:07:50;27.80;99.90
20803;DHT22;10562;-33.856;151.182;2023-01-10T00:10:21;27.70;99.90
20803;DHT22;10562;-33.856;151.182;2023-01-10T00:12:53;28.00;99.90
20803;DHT22;10562;-33.856;151.182;2023-01-10T00:15:41;28.10;99.90
20803;DHT22;10562;-33.856;151.182;2023-01-10T00:18:12;28.20;99.90
20803;DHT22;10562;-33.856;151.182;2023-01-10T00:20:43;28.20;99.90
20803;DHT22;10562;-33.856;151.182;2023-01-10T00:23:14;28.10;99.90
20803;DHT22;10562;-33.856;151.182;2023-01-10T00:25:45;28.20;99.90
20803;DHT22;10562;-33.856;151.182;2023-01-10T00:28:17;28.40;99.90
20803;DHT22;10562;-33.856;151.182;2023-01-10T00:30:51;28.50;99.90
20803;DHT22;10562;-33.856;151.182;2023-01-10T00:33:28;28.30;99.90
20803;DHT22;10562;-33.856;151.182;2023-01-10T00:35:59;28.40;99.90
20803;DHT22;10562;-33.856;151.182;2023-01-10T00:38:29;28.70;99.90
20803;DHT22;10562;-33.856;151.182;2023-01-10T00:41:00;28.80;99.90
20803;DHT22;10562;-33.856;151.182;2023-01-10T00:43:51;28.80;99.90
20803;DHT22;10562;-33.856;151.182;2023-01-10T00:46:28;29.10;99.90
20803;DHT22;10562;-33.856;151.182;2023-01-10T00:48:59;29.30;99.90
20803;DHT22;10562;-33.856;151.182;2023-01-10T00:51:35;29.40;99.90
20803;DHT22;10562;-33.856;151.182;2023-01-10T00:54:07;29.20;99.90
20803;DHT22;10562;-33.856;151.182;2023-01-10T00:56:38;29.00;99.90
20803;DHT22;10562;-33.856;151.182;2023-01-10T00:59:09;29.00;99.90
20803;DHT22;10562;-33.856;151.182;2023-01-10T01:01:43;28.90;99.90
20803;DHT22;10562;-33.856;151.182;2023-01-10T01:04:14;28.70;99.90
20803;DHT22;10562;-33.856;151.182;2023-01-10T01:06:45;28.50;99.90
20803;DHT22;10562;-33.856;151.182;2023-01-10T01:09:17;28.70;99.90
20803;DHT22;10562;-33.856;151.182;2023-01-10T01:11:48;28.70;99.90
20803;DHT22;10562;-33.856;151.182;2023-01-10T01:14:19;28.60;99.90
20803;DHT22;10562;-33.856;151.182;2023-01-10T01:16:51;28.90;99.90
20803;DHT22;10562;-33.856;151.182;2023-01-10T01:19:22;28.90;99.90
20803;DHT22;10562;-33.856;151.182;2023-01-10T01:21:53;29.00;99.90
20803;DHT22;10562;-33.856;151.182;2023-01-10T01:24:23;29.20;99.90
20803;DHT22;10562;-33.856;151.182;2023-01-10T01:26:55;29.30;99.90
20803;DHT22;10562;-33.856;151.182;2023-01-10T01:29:25;29.20;99.90
20803;DHT22;10562;-33.856;151.182;2023-01-10T01:31:58;28.70;99.90
20803;DHT22;10562;-33.856;151.182;2023-01-10T01:34:29;28.70;99.90
20803;DHT22;10562;-33.856;151.182;2023-01-10T01:37:00;28.10;99.90
20803;DHT22;10562;-33.856;151.182;2023-01-10T01:39:30;27.90;99.90
20803;DHT22;10562;-33.856;151.182;2023-01-10T01:42:01;28.10;99.90
20803;DHT22;10562;-33.856;151.182;2023-01-10T01:44:35;28.40;99.90
20803;DHT22;10562;-33.856;151.182;2023-01-10T01:47:16;28.20;99.90
20803;DHT22;10562;-33.856;151.182;2023-01-10T01:49:52;28.50;99.90
20803;DHT22;10562;-33.856;151.182;2023-01-10T01:52:27;28.80;99.90
20803;DHT22;10562;-33.856;151.182;2023-01-10T01:55:03;28.60;99.90
20803;DHT22;10562;-33.856;151.182;2023-01-10T01:57:34;28.50;99.90
20803;DHT22;10562;-33.856;151.182;2023-01-10T02:00:06;28.30;99.90
20803;DHT22;10562;-33.856;151.182;2023-01-10T02:02:43;28.40;99.90
20803;DHT22;10562;-33.856;151.182;2023-01-10T02:05:16;28.60;99.90
20803;DHT22;10562;-33.856;151.182;2023-01-10T02:07:50;29.20;99.90
20803;DHT22;10562;-33.856;151.182;2023-01-10T02:10:26;29.00;99.90
20803;DHT22;10562;-33.856;151.182;2023-01-10T02:13:01;29.10;99.90
20803;DHT22;10562;-33.856;151.182;2023-01-10T02:15:32;29.40;99.90
20803;DHT22;10562;-33.856;151.182;2023-01-10T02:18:05;29.20;99.90
20803;DHT22;10562;-33.856;151.182;2023-01-10T02:20:42;29.40;99.90
20803;DHT22;10562;-33.856;151.182;2023-01-10T02:23:46;29.50;99.90
20803;DHT22;10562;-33.856;151.182;2023-01-10T02:26:38;29.00;99.90
20803;DHT22;10562;-33.856;151.182;2023-01-10T02:29:27;29.10;99.90
20803;DHT22;10562;-33.856;151.182;2023-01-10T02:32:24;29.10;99.90
20803;DHT22;10562;-33.856;151.182;2023-01-10T02:35:07;28.50;99.90
20803;DHT22;10562;-33.856;151.182;2023-01-10T02:37:48;28.40;99.90
20803;DHT22;10562;-33.856;151.182;2023-01-10T02:40:25;28.20;99.90
20803;DHT22;10562;-33.856;151.182;2023-01-10T02:42:59;28.30;99.90
20803;DHT22;10562;-33.856;151.182;2023-01-10T02:45:34;28.20;99.90
20803;DHT22;10562;-33.856;151.182;2023-01-10T02:48:08;28.30;99.90
20803;DHT22;10562;-33.856;151.182;2023-01-10T02:50:54;28.40;99.90
20803;DHT22;10562;-33.856;151.182;2023-01-10T02:53:28;28.60;99.90
20803;DHT22;10562;-33.856;151.182;2023-01-10T02:59:28;28.90;99.90
20803;DHT22;10562;-33.856;151.182;2023-01-10T03:02:10;29.00;99.90
20803;DHT22;10562;-33.856;151.182;2023-01-10T03:04:50;29.40;99.90
20803;DHT22;10562;-33.856;151.182;2023-01-10T03:07:30;29.40;99.90
20803;DHT22;10562;-33.856;151.182;2023-01-10T03:10:06;29.70;99.90
20803;DHT22;10562;-33.856;151.182;2023-01-10T03:12:43;29.80;99.90
20803;DHT22;10562;-33.856;151.182;2023-01-10T03:15:18;30.00;99.90
20803;DHT22;10562;-33.856;151.182;2023-01-10T03:17:52;29.90;99.90
20803;DHT22;10562;-33.856;151.182;2023-01-10T03:20:27;29.70;99.90
20803;DHT22;10562;-33.856;151.182;2023-01-10T03:22:59;30.10;99.90
20803;DHT22;10562;-33.856;151.182;2023-01-10T03:25:34;30.00;99.90
20803;DHT22;10562;-33.856;151.182;2023-01-10T03:28:06;30.10;99.90
20803;DHT22;10562;-33.856;151.182;2023-01-10T03:30:41;30.00;99.90
20803;DHT22;10562;-33.856;151.182;2023-01-10T03:33:16;30.00;99.90
20803;DHT22;10562;-33.856;151.182;2023-01-10T03:36:01;30.40;99.90
20803;DHT22;10562;-33.856;151.182;2023-01-10T03:38:40;30.30;99.90
20803;DHT22;10562;-33.856;151.182;2023-01-10T03:41:15;30.20;99.90
20803;DHT22;10562;-33.856;151.182;2023-01-10T03:43:54;30.20;99.90
20803;DHT22;10562;-33.856;151.182;2023-01-10T03:47:02;30.20;99.90
20803;DHT22;10562;-33.856;151.182;2023-01-10T03:49:36;30.00;99.90
20803;DHT22;10562;-33.856;151.182;2023-01-10T03:52:12;30.20;99.90
20803;DHT22;10562;-33.856;151.182;2023-01-10T03:54:43;30.00;99.90
20803;DHT22;10562;-33.856;151.182;2023-01-10T03:57:21;30.30;99.90
20803;DHT22;10562;-33.856;151.182;2023-01-10T03:59:54;30.50;99.90
20803;DHT22;10562;-33.856;151.182;2023-01-10T04:02:26;30.20;99.90
20803;DHT22;10562;-33.856;151.182;2023-01-10T04:04:58;30.70;99.90
20803;DHT22;10562;-33.856;151.182;2023-01-10T04:07:31;30.70;99.90
20803;DHT22;10562;-33.856;151.182;2023-01-10T04:10:02;30.90;99.90
20803;DHT22;10562;-33.856;151.182;2023-01-10T04:12:33;30.90;99.90
20803;DHT22;10562;-33.856;151.182;2023-01-10T04:15:04;30.90;99.90
20803;DHT22;10562;-33.856;151.182;2023-01-10T04:17:35;30.60;99.90
20803;DHT22;10562;-33.856;151.182;2023-01-10T04:20:07;30.40;99.90
20803;DHT22;10562;-33.856;151.182;2023-01-10T04:22:39;30.40;99.90
20803;DHT22;10562;-33.856;151.182;2023-01-10T04:25:11;30.80;99.90
20803;DHT22;10562;-33.856;151.182;2023-01-10T04:27:42;31.00;99.90
20803;DHT22;10562;-33.856;151.182;2023-01-10T04:30:17;31.50;99.90
20803;DHT22;10562;-33.856;151.182;2023-01-10T04:32:48;31.70;99.90
20803;DHT22;10562;-33.856;151.182;2023-01-10T04:35:19;31.70;99.90
20803;DHT22;10562;-33.856;151.182;2023-01-10T04:37:52;31.80;99.90
20803;DHT22;10562;-33.856;151.182;2023-01-10T04:40:22;31.70;99.90
20803;DHT22;10562;-33.856;151.182;2023-01-10T04:42:53;32.10;99.90
20803;DHT22;10562;-33.856;151.182;2023-01-10T04:45:24;32.00;99.90
20803;DHT22;10562;-33.856;151.182;2023-01-10T04:47:55;32.30;99.90
20803;DHT22;10562;-33.856;151.182;2023-01-10T04:50:27;32.30;99.90
20803;DHT22;10562;-33.856;151.182;2023-01-10T04:53:00;32.00;99.90
20803;DHT22;10562;-33.856;151.182;2023-01-10T04:55:32;31.90;99.90
20803;DHT22;10562;-33.856;151.182;2023-01-10T04:58:03;31.80;99.90
20803;DHT22;10562;-33.856;151.182;2023-01-10T05:00:33;32.20;99.90
20803;DHT22;10562;-33.856;151.182;2023-01-10T05:03:04;32.10;99.90
20803;DHT22;10562;-33.856;151.182;2023-01-10T05:05:35;31.80;99.90
20803;DHT22;10562;-33.856;151.182;2023-01-10T05:08:08;31.40;99.90
20803;DHT22;10562;-33.856;151.182;2023-01-10T05:10:39;31.60;99.90
20803;DHT22;10562;-33.856;151.182;2023-01-10T05:13:09;31.90;99.90
20803;DHT22;10562;-33.856;151.182;2023-01-10T05:15:40;32.00;99.90
20803;DHT22;10562;-33.856;151.182;2023-01-10T05:18:11;31.80;99.90
20803;DHT22;10562;-33.856;151.182;2023-01-10T05:20:42;31.70;99.90
20803;DHT22;10562;-33.856;151.182;2023-01-10T05:23:14;31.60;99.90
20803;DHT22;10562;-33.856;151.182;2023-01-10T05:25:45;31.60;99.90
20803;DHT22;10562;-33.856;151.182;2023-01-10T05:28:16;30.90;99.90
20803;DHT22;10562;-33.856;151.182;2023-01-10T05:30:46;31.50;99.90
20803;DHT22;10562;-33.856;151.182;2023-01-10T05:33:17;31.90;99.90
20803;DHT22;10562;-33.856;151.182;2023-01-10T05:35:48;32.00;99.90
20803;DHT22;10562;-33.856;151.182;2023-01-10T05:38:20;32.20;99.90
20803;DHT22;10562;-33.856;151.182;2023-01-10T05:40:55;31.90;99.90
20803;DHT22;10562;-33.856;151.182;2023-01-10T05:43:27;32.00;99.90
20803;DHT22;10562;-33.856;151.182;2023-01-10T05:45:58;31.90;99.90
20803;DHT22;10562;-33.856;151.182;2023-01-10T05:48:28;31.40;99.90
20803;DHT22;10562;-33.856;151.182;2023-01-10T05:50:59;31.30;99.90
20803;DHT22;10562;-33.856;151.182;2023-01-10T05:53:32;30.90;99.90
20803;DHT22;10562;-33.856;151.182;2023-01-10T05:56:03;30.90;99.90
20803;DHT22;10562;-33.856;151.182;2023-01-10T05:58:34;30.80;99.90
20803;DHT22;10562;-33.856;151.182;2023-01-10T06:01:05;30.50;99.90
20803;DHT22;10562;-33.856;151.182;2023-01-10T06:03:36;30.50;99.90
20803;DHT22;10562;-33.856;151.182;2023-01-10T06:06:07;30.00;99.90
20803;DHT22;10562;-33.856;151.182;2023-01-10T06:08:40;29.30;99.90
20803;DHT22;10562;-33.856;151.182;2023-01-10T06:11:10;28.60;99.90
20803;DHT22;10562;-33.856;151.182;2023-01-10T06:13:41;27.80;99.90
20803;DHT22;10562;-33.856;151.182;2023-01-10T06:16:12;27.10;99.90
20803;DHT22;10562;-33.856;151.182;2023-01-10T06:18:42;26.70;99.90
20803;DHT22;10562;-33.856;151.182;2023-01-10T06:21:13;26.30;99.90
20803;DHT22;10562;-33.856;151.182;2023-01-10T06:23:46;26.10;99.90
20803;DHT22;10562;-33.856;151.182;2023-01-10T06:26:17;25.70;99.90
20803;DHT22;10562;-33.856;151.182;2023-01-10T06:28:47;25.40;99.90
20803;DHT22;10562;-33.856;151.182;2023-01-10T06:31:18;25.10;99.90
20803;DHT22;10562;-33.856;151.182;2023-01-10T06:33:50;24.90;99.90
20803;DHT22;10562;-33.856;151.182;2023-01-10T06:36:21;24.90;99.90
20803;DHT22;10562;-33.856;151.182;2023-01-10T06:38:54;24.90;99.90
20803;DHT22;10562;-33.856;151.182;2023-01-10T06:41:24;25.00;99.90
20803;DHT22;10562;-33.856;151.182;2023-01-10T06:43:55;24.90;99.90
20803;DHT22;10562;-33.856;151.182;2023-01-10T06:46:26;24.80;99.90
20803;DHT22;10562;-33.856;151.182;2023-01-10T06:48:57;24.80;99.90
20803;DHT22;10562;-33.856;151.182;2023-01-10T06:51:28;24.70;99.90
20803;DHT22;10562;-33.856;151.182;2023-01-10T06:54:01;24.50;99.90
20803;DHT22;10562;-33.856;151.182;2023-01-10T06:56:31;24.50;99.90
20803;DHT22;10562;-33.856;151.182;2023-01-10T06:59:02;24.50;99.90
20803;DHT22;10562;-33.856;151.182;2023-01-10T07:01:33;24.50;99.90
20803;DHT22;10562;-33.856;151.182;2023-01-10T07:04:06;24.50;99.90
20803;DHT22;10562;-33.856;151.182;2023-01-10T07:06:38;24.50;99.90
20803;DHT22;10562;-33.856;151.182;2023-01-10T07:09:10;24.50;99.90
20803;DHT22;10562;-33.856;151.182;2023-01-10T07:11:41;24.50;99.90
20803;DHT22;10562;-33.856;151.182;2023-01-10T07:14:12;24.40;99.90
20803;DHT22;10562;-33.856;151.182;2023-01-10T07:16:43;24.30;99.90
20803;DHT22;10562;-33.856;151.182;2023-01-10T07:19:13;24.20;99.90
20803;DHT22;10562;-33.856;151.182;2023-01-10T07:21:45;24.10;99.90
20803;DHT22;10562;-33.856;151.182;2023-01-10T07:24:17;24.00;99.90
20803;DHT22;10562;-33.856;151.182;2023-01-10T07:26:48;23.90;99.90
20803;DHT22;10562;-33.856;151.182;2023-01-10T07:29:19;23.90;99.90
20803;DHT22;10562;-33.856;151.182;2023-01-10T07:31:50;23.90;99.90
20803;DHT22;10562;-33.856;151.182;2023-01-10T07:34:21;23.90;99.90
20803;DHT22;10562;-33.856;151.182;2023-01-10T07:36:53;23.90;99.90
20803;DHT22;10562;-33.856;151.182;2023-01-10T07:39:25;23.80;99.90
20803;DHT22;10562;-33.856;151.182;2023-01-10T07:41:58;23.80;99.90
20803;DHT22;10562;-33.856;151.182;2023-01-10T07:44:29;23.60;99.90
20803;DHT22;10562;-33.856;151.182;2023-01-10T07:47:00;23.50;99.90
20803;DHT22;10562;-33.856;151.182;2023-01-10T07:49:30;23.50;99.90
20803;DHT22;10562;-33.856;151.182;2023-01-10T07:52:01;23.50;99.90
20803;DHT22;10562;-33.856;151.182;2023-01-10T07:54:36;23.50;99.90
20803;DHT22;10562;-33.856;151.182;2023-01-10T07:57:07;23.40;99.90
20803;DHT22;10562;-33.856;151.182;2023-01-10T07:59:37;23.40;99.90
20803;DHT22;10562;-33.856;151.182;2023-01-10T08:02:09;23.40;99.90
20803;DHT22;10562;-33.856;151.182;2023-01-10T08:04:40;23.30;99.90
20803;DHT22;10562;-33.856;151.182;2023-01-10T08:07:11;23.30;99.90
20803;DHT22;10562;-33.856;151.182;2023-01-10T08:09:43;23.20;99.90
20803;DHT22;10562;-33.856;151.182;2023-01-10T08:12:15;23.20;99.90
20803;DHT22;10562;-33.856;151.182;2023-01-10T08:14:46;23.20;99.90
20803;DHT22;10562;-33.856;151.182;2023-01-10T08:17:17;23.10;99.90
20803;DHT22;10562;-33.856;151.182;2023-01-10T08:19:48;23.00;99.90
20803;DHT22;10562;-33.856;151.182;2023-01-10T08:22:18;22.90;99.90
20803;DHT22;10562;-33.856;151.182;2023-01-10T08:24:51;22.90;99.90
20803;DHT22;10562;-33.856;151.182;2023-01-10T08:27:22;23.00;99.90
20803;DHT22;10562;-33.856;151.182;2023-01-10T08:29:53;23.00;99.90
20803;DHT22;10562;-33.856;151.182;2023-01-10T08:32:23;23.00;99.90
20803;DHT22;10562;-33.856;151.182;2023-01-10T08:34:55;23.00;99.90
20803;DHT22;10562;-33.856;151.182;2023-01-10T08:37:25;22.90;99.90
20803;DHT22;10562;-33.856;151.182;2023-01-10T08:39:58;22.80;99.90
20803;DHT22;10562;-33.856;151.182;2023-01-10T08:42:29;22.70;99.90
20803;DHT22;10562;-33.856;151.182;2023-01-10T08:44:59;22.60;99.90
20803;DHT22;10562;-33.856;151.182;2023-01-10T08:47:30;22.40;99.90
20803;DHT22;10562;-33.856;151.182;2023-01-10T08:50:01;22.30;99.90
20803;DHT22;10562;-33.856;151.182;2023-01-10T08:52:32;22.20;99.90
20803;DHT22;10562;-33.856;151.182;2023-01-10T08:55:05;22.20;99.90
20803;DHT22;10562;-33.856;151.182;2023-01-10T08:57:36;22.10;99.90
20803;DHT22;10562;-33.856;151.182;2023-01-10T09:00:08;22.10;99.90
20803;DHT22;10562;-33.856;151.182;2023-01-10T09:02:40;22.10;99.90
20803;DHT22;10562;-33.856;151.182;2023-01-10T09:05:11;22.10;99.90
20803;DHT22;10562;-33.856;151.182;2023-01-10T09:07:44;22.10;99.90
20803;DHT22;10562;-33.856;151.182;2023-01-10T09:10:17;22.20;99.90
20803;DHT22;10562;-33.856;151.182;2023-01-10T09:12:48;22.20;99.90
20803;DHT22;10562;-33.856;151.182;2023-01-10T09:15:29;22.10;99.90
20803;DHT22;10562;-33.856;151.182;2023-01-10T09:18:01;22.20;99.90
20803;DHT22;10562;-33.856;151.182;2023-01-10T09:20:35;22.20;99.90
20803;DHT22;10562;-33.856;151.182;2023-01-10T09:23:07;22.20;99.90
20803;DHT22;10562;-33.856;151.182;2023-01-10T09:25:40;22.30;99.90
20803;DHT22;10562;-33.856;151.182;2023-01-10T09:28:11;22.20;99.90
20803;DHT22;10562;-33.856;151.182;2023-01-10T09:30:42;22.20;99.90
20803;DHT22;10562;-33.856;151.182;2023-01-10T09:33:13;22.30;99.90
20803;DHT22;10562;-33.856;151.182;2023-01-10T09:35:44;22.20;99.90
20803;DHT22;10562;-33.856;151.182;2023-01-10T09:38:16;22.20;99.90
20803;DHT22;10562;-33.856;151.182;2023-01-10T09:41:03;22.10;99.90
20803;DHT22;10562;-33.856;151.182;2023-01-10T09:43:43;22.00;99.90
20803;DHT22;10562;-33.856;151.182;2023-01-10T09:46:25;22.00;99.90
20803;DHT22;10562;-33.856;151.182;2023-01-10T09:49:05;22.00;99.90
20803;DHT22;10562;-33.856;151.182;2023-01-10T09:51:42;22.00;99.90
20803;DHT22;10562;-33.856;151.182;2023-01-10T09:54:16;21.90;99.90
20803;DHT22;10562;-33.856;151.182;2023-01-10T09:56:50;21.80;99.90
20803;DHT22;10562;-33.856;151.182;2023-01-10T09:59:24;21.80;99.90
20803;DHT22;10562;-33.856;151.182;2023-01-10T10:02:03;21.80;99.90
20803;DHT22;10562;-33.856;151.182;2023-01-10T10:04:37;21.80;99.90
20803;DHT22;10562;-33.856;151.182;2023-01-10T10:07:13;21.80;99.90
20803;DHT22;10562;-33.856;151.182;2023-01-10T10:09:44;21.80;99.90
20803;DHT22;10562;-33.856;151.182;2023-01-10T10:12:26;21.80;99.90
20803;DHT22;10562;-33.856;151.182;2023-01-10T10:15:06;21.80;99.90
20803;DHT22;10562;-33.856;151.182;2023-01-10T10:17:47;21.70;99.90
20803;DHT22;10562;-33.856;151.182;2023-01-10T10:20:34;21.70;99.90
20803;DHT22;10562;-33.856;151.182;2023-01-10T10:23:19;21.70;99.90
20803;DHT22;10562;-33.856;151.182;2023-01-10T10:25:59;21.70;99.90
20803;DHT22;10562;-33.856;151.182;2023-01-10T10:31:31;21.50;99.90
20803;DHT22;10562;-33.856;151.182;2023-01-10T10:34:13;21.50;99.90
20803;DHT22;10562;-33.856;151.182;2023-01-10T10:36:52;21.40;99.90
20803;DHT22;10562;-33.856;151.182;2023-01-10T10:39:30;21.40;99.90
20803;DHT22;10562;-33.856;151.182;2023-01-10T10:42:04;21.30;99.90
20803;DHT22;10562;-33.856;151.182;2023-01-10T10:44:45;21.20;99.90
20803;DHT22;10562;-33.856;151.182;2023-01-10T10:47:18;21.30;99.90
20803;DHT22;10562;-33.856;151.182;2023-01-10T10:49:55;21.30;99.90
20803;DHT22;10562;-33.856;151.182;2023-01-10T10:52:30;21.30;99.90
20803;DHT22;10562;-33.856;151.182;2023-01-10T10:55:04;21.30;99.90
20803;DHT22;10562;-33.856;151.182;2023-01-10T10:57:38;21.30;99.90
20803;DHT22;10562;-33.856;151.182;2023-01-10T11:00:18;21.20;99.90
20803;DHT22;10562;-33.856;151.182;2023-01-10T11:02:52;21.20;99.90
20803;DHT22;10562;-33.856;151.182;2023-01-10T11:05:31;21.20;99.90
20803;DHT22;10562;-33.856;151.182;2023-01-10T11:08:05;21.20;99.90
20803;DHT22;10562;-33.856;151.182;2023-01-10T11:10:41;21.30;99.90
20803;DHT22;10562;-33.856;151.182;2023-01-10T11:13:16;21.50;99.90
20803;DHT22;10562;-33.856;151.182;2023-01-10T11:15:52;21.60;99.90
20803;DHT22;10562;-33.856;151.182;2023-01-10T11:18:24;21.70;99.90
20803;DHT22;10562;-33.856;151.182;2023-01-10T11:20:57;21.80;99.90
20803;DHT22;10562;-33.856;151.182;2023-01-10T11:23:36;21.80;99.90
20803;DHT22;10562;-33.856;151.182;2023-01-10T11:26:10;21.90;99.90
20803;DHT22;10562;-33.856;151.182;2023-01-10T11:28:54;21.90;99.90
20803;DHT22;10562;-33.856;151.182;2023-01-10T11:31:39;21.90;99.90
20803;DHT22;10562;-33.856;151.182;2023-01-10T11:34:20;21.90;99.90
20803;DHT22;10562;-33.856;151.182;2023-01-10T11:36:57;21.90;99.90
20803;DHT22;10562;-33.856;151.182;2023-01-10T11:39:29;21.90;99.90
20803;DHT22;10562;-33.856;151.182;2023-01-10T11:42:25;21.80;99.90
20803;DHT22;10562;-33.856;151.182;2023-01-10T11:45:25;21.80;99.90
20803;DHT22;10562;-33.856;151.182;2023-01-10T11:48:04;21.80;99.90
20803;DHT22;10562;-33.856;151.182;2023-01-10T11:50:38;21.90;99.90
20803;DHT22;10562;-33.856;151.182;2023-01-10T11:53:37;21.90;99.90
20803;DHT22;10562;-33.856;151.182;2023-01-10T11:56:10;21.90;99.90
20803;DHT22;10562;-33.856;151.182;2023-01-10T11:58:43;22.00;99.90
20803;DHT22;10562;-33.856;151.182;2023-01-10T12:01:27;22.00;99.90
20803;DHT22;10562;-33.856;151.182;2023-01-10T12:04:00;22.00;99.90
20803;DHT22;10562;-33.856;151.182;2023-01-10T12:06:32;22.00;99.90
20803;DHT22;10562;-33.856;151.182;2023-01-10T12:09:03;22.10;99.90
20803;DHT22;10562;-33.856;151.182;2023-01-10T12:11:34;22.10;99.90
20803;DHT22;10562;-33.856;151.182;2023-01-10T12:14:19;22.00;99.90
20803;DHT22;10562;-33.856;151.182;2023-01-10T12:16:58;22.10;99.90
20803;DHT22;10562;-33.856;151.182;2023-01-10T12:19:33;22.10;99.90
20803;DHT22;10562;-33.856;151.182;2023-01-10T12:22:05;22.10;99.90
20803;DHT22;10562;-33.856;151.182;2023-01-10T12:24:40;22.10;99.90
20803;DHT22;10562;-33.856;151.182;2023-01-10T12:27:13;22.10;99.90
20803;DHT22;10562;-33.856;151.182;2023-01-10T12:29:48;22.10;99.90
20803;DHT22;10562;-33.856;151.182;2023-01-10T12:32:25;22.10;99.90
20803;DHT22;10562;-33.856;151.182;2023-01-10T12:35:01;22.20;99.90
20803;DHT22;10562;-33.856;151.182;2023-01-10T12:37:39;22.10;99.90
20803;DHT22;10562;-33.856;151.182;2023-01-10T12:40:15;22.10;99.90
20803;DHT22;10562;-33.856;151.182;2023-01-10T12:42:53;22.20;99.90
20803;DHT22;10562;-33.856;151.182;2023-01-10T12:45:45;22.20;99.90
20803;DHT22;10562;-33.856;151.182;2023-01-10T12:48:23;22.20;99.90
20803;DHT22;10562;-33.856;151.182;2023-01-10T12:51:03;22.20;99.90
20803;DHT22;10562;-33.856;151.182;2023-01-10T12:53:37;22.20;99.90
20803;DHT22;10562;-33.856;151.182;2023-01-10T12:56:12;22.10;99.90
20803;DHT22;10562;-33.856;151.182;2023-01-10T12:58:45;22.10;99.90
20803;DHT22;10562;-33.856;151.182;2023-01-10T13:01:20;22.10;99.90
20803;DHT22;10562;-33.856;151.182;2023-01-10T13:03:55;22.10;99.90
20803;DHT22;10562;-33.856;151.182;2023-01-10T13:06:30;22.10;99.90
20803;DHT22;10562;-33.856;151.182;2023-01-10T13:09:06;22.20;99.90
20803;DHT22;10562;-33.856;151.182;2023-01-10T13:11:43;22.10;99.90
20803;DHT22;10562;-33.856;151.182;2023-01-10T13:14:17;22.10;99.90
20803;DHT22;10562;-33.856;151.182;2023-01-10T13:16:52;22.10;99.90
20803;DHT22;10562;-33.856;151.182;2023-01-10T13:19:26;22.10;99.90
20803;DHT22;10562;-33.856;151.182;2023-01-10T13:22:20;22.10;99.90
20803;DHT22;10562;-33.856;151.182;2023-01-10T13:24:59;22.10;99.90
20803;DHT22;10562;-33.856;151.182;2023-01-10T13:27:32;22.10;99.90
20803;DHT22;10562;-33.856;151.182;2023-01-10T13:30:04;22.10;99.90
20803;DHT22;10562;-33.856;151.182;2023-01-10T13:32:36;22.10;99.90
20803;DHT22;10562;-33.856;151.182;2023-01-10T13:35:13;22.10;99.90
20803;DHT22;10562;-33.856;151.182;2023-01-10T13:37:53;22.20;99.90
20803;DHT22;10562;-33.856;151.182;2023-01-10T13:40:26;22.20;99.90
20803;DHT22;10562;-33.856;151.182;2023-01-10T13:43:29;22.10;99.90
20803;DHT22;10562;-33.856;151.182;2023-01-10T13:46:33;22.10;99.90
20803;DHT22;10562;-33.856;151.182;2023-01-10T13:52:38;22.10;99.90
20803;DHT22;10562;-33.856;151.182;2023-01-10T13:55:29;22.10;99.90
20803;DHT22;10562;-33.856;151.182;2023-01-10T13:58:03;22.10;99.90
20803;DHT22;10562;-33.856;151.182;2023-01-10T14:00:54;22.10;99.90
20803;DHT22;10562;-33.856;151.182;2023-01-10T14:03:48;22.10;99.90
20803;DHT22;10562;-33.856;151.182;2023-01-10T14:06:33;22.00;99.90
20803;DHT22;10562;-33.856;151.182;2023-01-10T14:09:29;22.10;99.90
20803;DHT22;10562;-33.856;151.182;2023-01-10T14:12:04;22.10;99.90
20803;DHT22;10562;-33.856;151.182;2023-01-10T14:14:37;22.10;99.90
20803;DHT22;10562;-33.856;151.182;2023-01-10T14:17:19;22.10;99.90
20803;DHT22;10562;-33.856;151.182;2023-01-10T14:20:00;22.00;99.90
20803;DHT22;10562;-33.856;151.182;2023-01-10T14:22:33;22.10;99.90
20803;DHT22;10562;-33.856;151.182;2023-01-10T14:25:07;22.10;99.90
20803;DHT22;10562;-33.856;151.182;2023-01-10T14:27:49;22.00;99.90
20803;DHT22;10562;-33.856;151.182;2023-01-10T14:30:23;22.00;99.90
20803;DHT22;10562;-33.856;151.182;2023-01-10T14:32:58;22.00;99.90
20803;DHT22;10562;-33.856;151.182;2023-01-10T14:35:35;22.00;99.90
20803;DHT22;10562;-33.856;151.182;2023-01-10T14:38:12;22.00;99.90
20803;DHT22;10562;-33.856;151.182;2023-01-10T14:40:49;22.00;99.90
20803;DHT22;10562;-33.856;151.182;2023-01-10T14:43:24;22.00;99.90
20803;DHT22;10562;-33.856;151.182;2023-01-10T14:45:59;22.10;99.90
20803;DHT22;10562;-33.856;151.182;2023-01-10T14:48:31;22.00;99.90
20803;DHT22;10562;-33.856;151.182;2023-01-10T14:51:18;22.10;99.90
20803;DHT22;10562;-33.856;151.182;2023-01-10T14:53:56;22.00;99.90
20803;DHT22;10562;-33.856;151.182;2023-01-10T14:56:29;22.00;99.90
20803;DHT22;10562;-33.856;151.182;2023-01-10T14:59:16;22.00;99.90
20803;DHT22;10562;-33.856;151.182;2023-01-10T15:01:48;22.00;99.90
20803;DHT22;10562;-33.856;151.182;2023-01-10T15:04:21;22.00;99.90
20803;DHT22;10562;-33.856;151.182;2023-01-10T15:06:57;22.00;99.90
20803;DHT22;10562;-33.856;151.182;2023-01-10T15:09:30;22.00;99.90
20803;DHT22;10562;-33.856;151.182;2023-01-10T15:12:03;22.00;99.90
20803;DHT22;10562;-33.856;151.182;2023-01-10T15:14:37;22.00;99.90
20803;DHT22;10562;-33.856;151.182;2023-01-10T15:17:12;22.00;99.90
20803;DHT22;10562;-33.856;151.182;2023-01-10T15:19:48;22.00;99.90
20803;DHT22;10562;-33.856;151.182;2023-01-10T15:22:27;22.00;99.90
20803;DHT22;10562;-33.856;151.182;2023-01-10T15:25:01;22.00;99.90
20803;DHT22;10562;-33.856;151.182;2023-01-10T15:27:32;21.90;99.90
20803;DHT22;10562;-33.856;151.182;2023-01-10T15:30:08;21.90;99.90
20803;DHT22;10562;-33.856;151.182;2023-01-10T15:32:39;21.90;99.90
20803;DHT22;10562;-33.856;151.182;2023-01-10T15:35:12;21.90;99.90
20803;DHT22;10562;-33.856;151.182;2023-01-10T15:37:49;21.90;99.90
20803;DHT22;10562;-33.856;151.182;2023-01-10T15:40:22;21.90;99.90
20803;DHT22;10562;-33.856;151.182;2023-01-10T15:43:11;21.90;99.90